sensor_id;sensor_type;location;lat;lon;timestamp;P1;durP1;ratioP1;P2;durP2;ratioP2
3052;SDS011;1536;51.098;6.414;2023-07-29T00:00:42;4.97;;;2.23;;
3052;SDS011;1536;51.098;6.414;2023-07-29T00:03:09;3.77;;;1.80;;
3052;SDS011;1536;51.098;6.414;2023-07-29T00:05:38;2.93;;;1.80;;
3052;SDS011;1536;51.098;6.414;2023-07-29T00:08:05;2.20;;;2.00;;
3052;SDS011;1536;51.098;6.414;2023-07-29T00:10:32;2.10;;;1.90;;
3052;SDS011;1536;51.098;6.414;2023-07-29T00:13:02;2.33;;;1.87;;
3052;SDS011;1536;51.098;6.414;2023-07-29T00:15:28;3.93;;;1.70;;
3052;SDS011;1536;51.098;6.414;2023-07-29T00:17:55;5.23;;;2.50;;
3052;SDS011;1536;51.098;6.414;2023-07-29T00:20:22;20.97;;;2.83;;
3052;SDS011;1536;51.098;6.414;2023-07-29T00:22:50;2.90;;;2.30;;
3052;SDS011;1536;51.098;6.414;2023-07-29T00:25:18;3.70;;;2.40;;
3052;SDS011;1536;51.098;6.414;2023-07-29T00:27:45;8.00;;;2.50;;
3052;SDS011;1536;51.098;6.414;2023-07-29T00:30:12;3.23;;;2.13;;
3052;SDS011;1536;51.098;6.414;2023-07-29T00:32:39;3.13;;;2.00;;
3052;SDS011;1536;51.098;6.414;2023-07-29T00:35:06;3.20;;;2.00;;
3052;SDS011;1536;51.098;6.414;2023-07-29T00:37:34;1.77;;;1.67;;
3052;SDS011;1536;51.098;6.414;2023-07-29T00:40:04;6.63;;;2.10;;
3052;SDS011;1536;51.098;6.414;2023-07-29T00:42:38;3.40;;;1.93;;
3052;SDS011;1536;51.098;6.414;2023-07-29T00:45:08;3.17;;;2.33;;
3052;SDS011;1536;51.098;6.414;2023-07-29T00:47:35;7.23;;;2.00;;
3052;SDS011;1536;51.098;6.414;2023-07-29T00:50:01;6.07;;;2.17;;
3052;SDS011;1536;51.098;6.414;2023-07-29T00:52:29;7.37;;;2.87;;
3052;SDS011;1536;51.098;6.414;2023-07-29T00:54:56;3.10;;;2.00;;
3052;SDS011;1536;51.098;6.414;2023-07-29T00:57:24;2.97;;;2.37;;
3052;SDS011;1536;51.098;6.414;2023-07-29T00:59:51;3.63;;;2.60;;
3052;SDS011;1536;51.098;6.414;2023-07-29T01:02:18;8.67;;;2.20;;
3052;SDS011;1536;51.098;6.414;2023-07-29T01:04:45;3.00;;;2.47;;
3052;SDS011;1536;51.098;6.414;2023-07-29T01:07:18;5.70;;;1.80;;
3052;SDS011;1536;51.098;6.414;2023-07-29T01:09:55;5.80;;;2.60;;
3052;SDS011;1536;51.098;6.414;2023-07-29T01:12:32;3.67;;;1.90;;
3052;SDS011;1536;51.098;6.414;2023-07-29T01:15:05;4.70;;;1.90;;
3052;SDS011;1536;51.098;6.414;2023-07-29T01:17:39;4.80;;;1.97;;
3052;SDS011;1536;51.098;6.414;2023-07-29T01:20:09;6.83;;;2.80;;
3052;SDS011;1536;51.098;6.414;2023-07-29T01:22:39;2.00;;;1.80;;
3052;SDS011;1536;51.098;6.414;2023-07-29T01:25:08;3.27;;;2.37;;
3052;SDS011;1536;51.098;6.414;2023-07-29T01:27:35;3.23;;;2.67;;
3052;SDS011;1536;51.098;6.414;2023-07-29T01:30:02;2.37;;;2.17;;
3052;SDS011;1536;51.098;6.414;2023-07-29T01:32:32;3.57;;;1.83;;
3052;SDS011;1536;51.098;6.414;2023-07-29T01:35:05;3.33;;;2.10;;
3052;SDS011;1536;51.098;6.414;2023-07-29T01:37:37;3.93;;;2.10;;
3052;SDS011;1536;51.098;6.414;2023-07-29T01:40:06;7.00;;;2.00;;
3052;SDS011;1536;51.098;6.414;2023-07-29T01:42:36;4.03;;;2.47;;
3052;SDS011;1536;51.098;6.414;2023-07-29T01:45:04;7.87;;;2.37;;
3052;SDS011;1536;51.098;6.414;2023-07-29T01:47:31;3.80;;;2.13;;
3052;SDS011;1536;51.098;6.414;2023-07-29T01:49:58;4.33;;;2.60;;
3052;SDS011;1536;51.098;6.414;2023-07-29T01:52:25;3.47;;;2.40;;
3052;SDS011;1536;51.098;6.414;2023-07-29T01:54:52;4.27;;;2.23;;
3052;SDS011;1536;51.098;6.414;2023-07-29T01:57:20;2.90;;;2.30;;
3052;SDS011;1536;51.098;6.414;2023-07-29T01:59:47;2.93;;;1.77;;
3052;SDS011;1536;51.098;6.414;2023-07-29T02:02:14;7.27;;;2.37;;
3052;SDS011;1536;51.098;6.414;2023-07-29T02:04:41;3.87;;;2.80;;
3052;SDS011;1536;51.098;6.414;2023-07-29T02:07:08;3.20;;;2.00;;
3052;SDS011;1536;51.098;6.414;2023-07-29T02:09:34;4.63;;;2.20;;
3052;SDS011;1536;51.098;6.414;2023-07-29T02:12:01;8.00;;;3.07;;
3052;SDS011;1536;51.098;6.414;2023-07-29T02:14:30;3.63;;;2.23;;
3052;SDS011;1536;51.098;6.414;2023-07-29T02:16:57;2.83;;;2.10;;
3052;SDS011;1536;51.098;6.414;2023-07-29T02:19:23;4.90;;;2.40;;
3052;SDS011;1536;51.098;6.414;2023-07-29T02:21:50;2.80;;;2.53;;
3052;SDS011;1536;51.098;6.414;2023-07-29T02:24:17;3.40;;;2.17;;
3052;SDS011;1536;51.098;6.414;2023-07-29T02:26:44;2.13;;;2.00;;
3052;SDS011;1536;51.098;6.414;2023-07-29T02:29:11;3.53;;;2.20;;
3052;SDS011;1536;51.098;6.414;2023-07-29T02:31:39;4.43;;;2.30;;
3052;SDS011;1536;51.098;6.414;2023-07-29T02:34:06;4.83;;;2.00;;
3052;SDS011;1536;51.098;6.414;2023-07-29T02:36:32;2.90;;;2.00;;
3052;SDS011;1536;51.098;6.414;2023-07-29T02:38:59;3.83;;;1.83;;
3052;SDS011;1536;51.098;6.414;2023-07-29T02:41:26;3.23;;;2.33;;
3052;SDS011;1536;51.098;6.414;2023-07-29T02:43:53;4.23;;;2.40;;
3052;SDS011;1536;51.098;6.414;2023-07-29T02:46:20;2.37;;;2.17;;
3052;SDS011;1536;51.098;6.414;2023-07-29T02:48:48;2.20;;;2.00;;
3052;SDS011;1536;51.098;6.414;2023-07-29T02:51:18;4.03;;;2.93;;
3052;SDS011;1536;51.098;6.414;2023-07-29T02:53:45;5.73;;;2.70;;
3052;SDS011;1536;51.098;6.414;2023-07-29T02:56:12;6.63;;;2.40;;
3052;SDS011;1536;51.098;6.414;2023-07-29T02:58:39;4.13;;;3.17;;
3052;SDS011;1536;51.098;6.414;2023-07-29T03:01:05;5.63;;;2.90;;
3052;SDS011;1536;51.098;6.414;2023-07-29T03:03:32;2.63;;;2.43;;
3052;SDS011;1536;51.098;6.414;2023-07-29T03:06:01;4.07;;;2.60;;
3052;SDS011;1536;51.098;6.414;2023-07-29T03:08:29;9.33;;;3.80;;
3052;SDS011;1536;51.098;6.414;2023-07-29T03:10:56;2.87;;;2.60;;
3052;SDS011;1536;51.098;6.414;2023-07-29T03:13:23;3.87;;;3.30;;
3052;SDS011;1536;51.098;6.414;2023-07-29T03:15:51;3.27;;;2.97;;
3052;SDS011;1536;51.098;6.414;2023-07-29T03:18:17;5.50;;;3.57;;
3052;SDS011;1536;51.098;6.414;2023-07-29T03:20:44;7.40;;;3.83;;
3052;SDS011;1536;51.098;6.414;2023-07-29T03:23:12;4.27;;;3.97;;
3052;SDS011;1536;51.098;6.414;2023-07-29T03:25:39;3.90;;;3.60;;
3052;SDS011;1536;51.098;6.414;2023-07-29T03:28:06;4.00;;;3.60;;
3052;SDS011;1536;51.098;6.414;2023-07-29T03:30:32;3.37;;;3.07;;
3052;SDS011;1536;51.098;6.414;2023-07-29T03:32:59;3.43;;;2.90;;
3052;SDS011;1536;51.098;6.414;2023-07-29T03:35:26;3.63;;;3.30;;
3052;SDS011;1536;51.098;6.414;2023-07-29T03:37:53;3.70;;;3.40;;
3052;SDS011;1536;51.098;6.414;2023-07-29T03:40:21;3.50;;;3.20;;
3052;SDS011;1536;51.098;6.414;2023-07-29T03:42:47;3.50;;;2.43;;
3052;SDS011;1536;51.098;6.414;2023-07-29T03:45:14;6.20;;;3.30;;
3052;SDS011;1536;51.098;6.414;2023-07-29T03:47:42;3.70;;;3.13;;
3052;SDS011;1536;51.098;6.414;2023-07-29T03:50:10;4.10;;;3.30;;
3052;SDS011;1536;51.098;6.414;2023-07-29T03:52:37;6.53;;;2.90;;
3052;SDS011;1536;51.098;6.414;2023-07-29T03:55:04;3.80;;;2.93;;
3052;SDS011;1536;51.098;6.414;2023-07-29T03:57:32;4.20;;;3.63;;
3052;SDS011;1536;51.098;6.414;2023-07-29T03:59:59;3.57;;;3.27;;
3052;SDS011;1536;51.098;6.414;2023-07-29T04:02:25;4.43;;;3.10;;
3052;SDS011;1536;51.098;6.414;2023-07-29T04:04:52;3.30;;;3.00;;
3052;SDS011;1536;51.098;6.414;2023-07-29T04:07:19;4.07;;;3.43;;
3052;SDS011;1536;51.098;6.414;2023-07-29T04:09:46;4.13;;;3.60;;
3052;SDS011;1536;51.098;6.414;2023-07-29T04:12:13;4.37;;;3.23;;
3052;SDS011;1536;51.098;6.414;2023-07-29T04:14:41;5.67;;;2.67;;
3052;SDS011;1536;51.098;6.414;2023-07-29T04:17:07;3.27;;;2.97;;
3052;SDS011;1536;51.098;6.414;2023-07-29T04:19:34;3.30;;;2.63;;
3052;SDS011;1536;51.098;6.414;2023-07-29T04:22:03;3.17;;;2.90;;
3052;SDS011;1536;51.098;6.414;2023-07-29T04:24:30;4.50;;;2.73;;
3052;SDS011;1536;51.098;6.414;2023-07-29T04:26:56;3.10;;;2.40;;
3052;SDS011;1536;51.098;6.414;2023-07-29T04:29:23;3.53;;;3.23;;
3052;SDS011;1536;51.098;6.414;2023-07-29T04:31:51;4.13;;;2.90;;
3052;SDS011;1536;51.098;6.414;2023-07-29T04:34:18;3.47;;;3.17;;
3052;SDS011;1536;51.098;6.414;2023-07-29T04:36:45;5.40;;;3.00;;
3052;SDS011;1536;51.098;6.414;2023-07-29T04:39:12;3.47;;;3.17;;
3052;SDS011;1536;51.098;6.414;2023-07-29T04:41:39;3.70;;;3.00;;
3052;SDS011;1536;51.098;6.414;2023-07-29T04:44:06;6.57;;;2.80;;
3052;SDS011;1536;51.098;6.414;2023-07-29T04:46:36;3.30;;;2.70;;
3052;SDS011;1536;51.098;6.414;2023-07-29T04:49:05;2.93;;;2.37;;
3052;SDS011;1536;51.098;6.414;2023-07-29T04:51:31;4.23;;;2.83;;
3052;SDS011;1536;51.098;6.414;2023-07-29T04:54:02;2.57;;;2.37;;
3052;SDS011;1536;51.098;6.414;2023-07-29T04:56:29;2.63;;;1.80;;
3052;SDS011;1536;51.098;6.414;2023-07-29T04:58:56;2.80;;;2.37;;
3052;SDS011;1536;51.098;6.414;2023-07-29T05:01:22;5.70;;;2.40;;
3052;SDS011;1536;51.098;6.414;2023-07-29T05:03:50;3.00;;;2.10;;
3052;SDS011;1536;51.098;6.414;2023-07-29T05:06:18;4.37;;;2.50;;
3052;SDS011;1536;51.098;6.414;2023-07-29T05:08:45;2.60;;;2.10;;
3052;SDS011;1536;51.098;6.414;2023-07-29T05:11:12;3.23;;;2.13;;
3052;SDS011;1536;51.098;6.414;2023-07-29T05:13:39;2.10;;;1.90;;
3052;SDS011;1536;51.098;6.414;2023-07-29T05:16:05;3.50;;;2.20;;
3052;SDS011;1536;51.098;6.414;2023-07-29T05:18:32;3.10;;;2.30;;
3052;SDS011;1536;51.098;6.414;2023-07-29T05:20:59;1.63;;;1.53;;
3052;SDS011;1536;51.098;6.414;2023-07-29T05:23:27;3.50;;;1.90;;
3052;SDS011;1536;51.098;6.414;2023-07-29T05:25:54;3.83;;;2.47;;
3052;SDS011;1536;51.098;6.414;2023-07-29T05:28:22;4.93;;;2.23;;
3052;SDS011;1536;51.098;6.414;2023-07-29T05:30:49;2.60;;;2.20;;
3052;SDS011;1536;51.098;6.414;2023-07-29T05:33:15;3.27;;;2.10;;
3052;SDS011;1536;51.098;6.414;2023-07-29T05:35:42;4.57;;;2.50;;
3052;SDS011;1536;51.098;6.414;2023-07-29T05:38:09;2.47;;;2.27;;
3052;SDS011;1536;51.098;6.414;2023-07-29T05:40:37;7.73;;;2.20;;
3052;SDS011;1536;51.098;6.414;2023-07-29T05:43:04;6.77;;;2.20;;
3052;SDS011;1536;51.098;6.414;2023-07-29T05:45:30;3.00;;;2.53;;
3052;SDS011;1536;51.098;6.414;2023-07-29T05:47:59;5.97;;;2.47;;
3052;SDS011;1536;51.098;6.414;2023-07-29T05:50:26;3.17;;;2.70;;
3052;SDS011;1536;51.098;6.414;2023-07-29T05:52:54;5.03;;;3.00;;
3052;SDS011;1536;51.098;6.414;2023-07-29T05:55:21;4.63;;;3.23;;
3052;SDS011;1536;51.098;6.414;2023-07-29T05:57:49;4.60;;;4.20;;
3052;SDS011;1536;51.098;6.414;2023-07-29T06:00:16;4.23;;;3.83;;
3052;SDS011;1536;51.098;6.414;2023-07-29T06:02:43;5.13;;;4.00;;
3052;SDS011;1536;51.098;6.414;2023-07-29T06:05:10;5.13;;;4.73;;
3052;SDS011;1536;51.098;6.414;2023-07-29T06:07:37;6.10;;;4.77;;
3052;SDS011;1536;51.098;6.414;2023-07-29T06:10:04;6.10;;;3.90;;
3052;SDS011;1536;51.098;6.414;2023-07-29T06:12:31;4.60;;;4.20;;
3052;SDS011;1536;51.098;6.414;2023-07-29T06:14:59;6.53;;;3.97;;
3052;SDS011;1536;51.098;6.414;2023-07-29T06:17:26;9.23;;;3.80;;
3052;SDS011;1536;51.098;6.414;2023-07-29T06:19:53;3.87;;;3.23;;
3052;SDS011;1536;51.098;6.414;2023-07-29T06:22:20;4.53;;;3.47;;
3052;SDS011;1536;51.098;6.414;2023-07-29T06:24:46;4.70;;;3.27;;
3052;SDS011;1536;51.098;6.414;2023-07-29T06:27:13;3.63;;;3.10;;
3052;SDS011;1536;51.098;6.414;2023-07-29T06:29:41;4.03;;;3.10;;
3052;SDS011;1536;51.098;6.414;2023-07-29T06:32:09;4.07;;;3.13;;
3052;SDS011;1536;51.098;6.414;2023-07-29T06:34:36;2.97;;;2.70;;
3052;SDS011;1536;51.098;6.414;2023-07-29T06:37:03;3.07;;;2.70;;
3052;SDS011;1536;51.098;6.414;2023-07-29T06:39:30;3.83;;;3.10;;
3052;SDS011;1536;51.098;6.414;2023-07-29T06:41:57;5.30;;;3.10;;
3052;SDS011;1536;51.098;6.414;2023-07-29T06:44:24;3.67;;;2.90;;
3052;SDS011;1536;51.098;6.414;2023-07-29T06:46:50;2.73;;;2.40;;
3052;SDS011;1536;51.098;6.414;2023-07-29T06:49:19;3.17;;;2.87;;
3052;SDS011;1536;51.098;6.414;2023-07-29T06:51:45;3.07;;;2.77;;
3052;SDS011;1536;51.098;6.414;2023-07-29T06:54:12;3.30;;;2.30;;
3052;SDS011;1536;51.098;6.414;2023-07-29T06:56:42;4.40;;;2.83;;
3052;SDS011;1536;51.098;6.414;2023-07-29T06:59:09;3.47;;;2.60;;
3052;SDS011;1536;51.098;6.414;2023-07-29T07:01:35;3.30;;;1.90;;
3052;SDS011;1536;51.098;6.414;2023-07-29T07:04:02;2.63;;;2.43;;
3052;SDS011;1536;51.098;6.414;2023-07-29T07:06:30;3.70;;;2.20;;
3052;SDS011;1536;51.098;6.414;2023-07-29T07:08:57;3.50;;;1.90;;
3052;SDS011;1536;51.098;6.414;2023-07-29T07:11:24;2.53;;;1.97;;
3052;SDS011;1536;51.098;6.414;2023-07-29T07:13:51;3.80;;;2.13;;
3052;SDS011;1536;51.098;6.414;2023-07-29T07:16:18;4.10;;;1.80;;
3052;SDS011;1536;51.098;6.414;2023-07-29T07:18:45;3.93;;;1.97;;
3052;SDS011;1536;51.098;6.414;2023-07-29T07:21:12;2.50;;;1.80;;
3052;SDS011;1536;51.098;6.414;2023-07-29T07:23:40;2.10;;;1.77;;
3052;SDS011;1536;51.098;6.414;2023-07-29T07:26:07;3.50;;;1.93;;
3052;SDS011;1536;51.098;6.414;2023-07-29T07:28:33;3.67;;;2.00;;
3052;SDS011;1536;51.098;6.414;2023-07-29T07:31:00;1.70;;;1.57;;
3052;SDS011;1536;51.098;6.414;2023-07-29T07:33:27;2.93;;;1.57;;
3052;SDS011;1536;51.098;6.414;2023-07-29T07:35:54;3.83;;;1.50;;
3052;SDS011;1536;51.098;6.414;2023-07-29T07:38:20;3.07;;;2.00;;
3052;SDS011;1536;51.098;6.414;2023-07-29T07:40:53;2.97;;;1.67;;
3052;SDS011;1536;51.098;6.414;2023-07-29T07:43:22;3.40;;;2.00;;
3052;SDS011;1536;51.098;6.414;2023-07-29T07:45:49;4.10;;;2.10;;
3052;SDS011;1536;51.098;6.414;2023-07-29T07:48:16;6.03;;;2.10;;
3052;SDS011;1536;51.098;6.414;2023-07-29T07:50:45;3.17;;;2.10;;
3052;SDS011;1536;51.098;6.414;2023-07-29T07:53:12;2.90;;;1.50;;
3052;SDS011;1536;51.098;6.414;2023-07-29T07:55:38;1.60;;;1.50;;
3052;SDS011;1536;51.098;6.414;2023-07-29T07:58:06;3.50;;;1.87;;
3052;SDS011;1536;51.098;6.414;2023-07-29T08:00:33;3.10;;;1.47;;
3052;SDS011;1536;51.098;6.414;2023-07-29T08:03:00;4.47;;;1.60;;
3052;SDS011;1536;51.098;6.414;2023-07-29T08:05:27;2.80;;;1.63;;
3052;SDS011;1536;51.098;6.414;2023-07-29T08:07:54;2.33;;;1.50;;
3052;SDS011;1536;51.098;6.414;2023-07-29T08:10:22;1.43;;;1.20;;
3052;SDS011;1536;51.098;6.414;2023-07-29T08:12:49;1.60;;;1.40;;
3052;SDS011;1536;51.098;6.414;2023-07-29T08:15:18;4.90;;;1.40;;
3052;SDS011;1536;51.098;6.414;2023-07-29T08:17:45;2.23;;;1.17;;
3052;SDS011;1536;51.098;6.414;2023-07-29T08:20:12;1.70;;;1.10;;
3052;SDS011;1536;51.098;6.414;2023-07-29T08:22:39;1.33;;;1.20;;
3052;SDS011;1536;51.098;6.414;2023-07-29T08:25:06;1.70;;;1.13;;
3052;SDS011;1536;51.098;6.414;2023-07-29T08:27:33;6.20;;;1.60;;
3052;SDS011;1536;51.098;6.414;2023-07-29T08:30:00;1.40;;;1.20;;
3052;SDS011;1536;51.098;6.414;2023-07-29T08:32:28;2.83;;;1.37;;
3052;SDS011;1536;51.098;6.414;2023-07-29T08:34:55;2.70;;;1.07;;
3052;SDS011;1536;51.098;6.414;2023-07-29T08:37:22;2.23;;;1.27;;
3052;SDS011;1536;51.098;6.414;2023-07-29T08:39:49;1.30;;;1.10;;
3052;SDS011;1536;51.098;6.414;2023-07-29T08:42:18;1.50;;;1.20;;
3052;SDS011;1536;51.098;6.414;2023-07-29T08:44:45;1.60;;;1.10;;
3052;SDS011;1536;51.098;6.414;2023-07-29T08:47:15;1.60;;;1.37;;
3052;SDS011;1536;51.098;6.414;2023-07-29T08:49:44;1.80;;;1.37;;
3052;SDS011;1536;51.098;6.414;2023-07-29T08:52:12;2.20;;;1.40;;
3052;SDS011;1536;51.098;6.414;2023-07-29T08:54:40;2.83;;;1.30;;
3052;SDS011;1536;51.098;6.414;2023-07-29T08:57:07;4.23;;;1.30;;
3052;SDS011;1536;51.098;6.414;2023-07-29T08:59:35;2.13;;;1.33;;
3052;SDS011;1536;51.098;6.414;2023-07-29T09:02:02;1.50;;;1.30;;
3052;SDS011;1536;51.098;6.414;2023-07-29T09:04:29;1.30;;;0.93;;
3052;SDS011;1536;51.098;6.414;2023-07-29T09:06:57;1.23;;;1.10;;
3052;SDS011;1536;51.098;6.414;2023-07-29T09:09:26;2.73;;;1.53;;
3052;SDS011;1536;51.098;6.414;2023-07-29T09:11:53;1.30;;;1.20;;
3052;SDS011;1536;51.098;6.414;2023-07-29T09:14:20;2.80;;;1.47;;
3052;SDS011;1536;51.098;6.414;2023-07-29T09:16:47;1.40;;;1.10;;
3052;SDS011;1536;51.098;6.414;2023-07-29T09:19:14;3.00;;;1.47;;
3052;SDS011;1536;51.098;6.414;2023-07-29T09:21:41;1.50;;;1.30;;
3052;SDS011;1536;51.098;6.414;2023-07-29T09:24:09;2.80;;;1.30;;
3052;SDS011;1536;51.098;6.414;2023-07-29T09:26:37;2.40;;;1.60;;
3052;SDS011;1536;51.098;6.414;2023-07-29T09:29:06;3.30;;;1.60;;
3052;SDS011;1536;51.098;6.414;2023-07-29T09:31:33;1.50;;;1.10;;
3052;SDS011;1536;51.098;6.414;2023-07-29T09:34:00;2.40;;;1.50;;
3052;SDS011;1536;51.098;6.414;2023-07-29T09:36:30;3.57;;;1.40;;
3052;SDS011;1536;51.098;6.414;2023-07-29T09:38:59;1.83;;;1.43;;
3052;SDS011;1536;51.098;6.414;2023-07-29T09:41:27;1.40;;;1.20;;
3052;SDS011;1536;51.098;6.414;2023-07-29T09:43:56;1.57;;;0.93;;
3052;SDS011;1536;51.098;6.414;2023-07-29T09:46:24;1.33;;;1.20;;
3052;SDS011;1536;51.098;6.414;2023-07-29T09:48:52;3.80;;;1.20;;
3052;SDS011;1536;51.098;6.414;2023-07-29T09:51:21;2.23;;;1.50;;
3052;SDS011;1536;51.098;6.414;2023-07-29T09:53:48;1.40;;;1.20;;
3052;SDS011;1536;51.098;6.414;2023-07-29T09:56:17;1.90;;;1.60;;
3052;SDS011;1536;51.098;6.414;2023-07-29T09:58:51;1.47;;;1.27;;
3052;SDS011;1536;51.098;6.414;2023-07-29T10:01:17;4.13;;;1.50;;
3052;SDS011;1536;51.098;6.414;2023-07-29T10:03:44;1.93;;;1.57;;
3052;SDS011;1536;51.098;6.414;2023-07-29T10:06:11;1.70;;;1.60;;
3052;SDS011;1536;51.098;6.414;2023-07-29T10:08:40;3.57;;;1.27;;
3052;SDS011;1536;51.098;6.414;2023-07-29T10:11:08;1.60;;;1.37;;
3052;SDS011;1536;51.098;6.414;2023-07-29T10:13:36;2.57;;;1.50;;
3052;SDS011;1536;51.098;6.414;2023-07-29T10:16:05;1.80;;;1.50;;
3052;SDS011;1536;51.098;6.414;2023-07-29T10:18:32;1.70;;;1.50;;
3052;SDS011;1536;51.098;6.414;2023-07-29T10:21:00;2.20;;;1.53;;
3052;SDS011;1536;51.098;6.414;2023-07-29T10:23:28;1.53;;;1.30;;
3052;SDS011;1536;51.098;6.414;2023-07-29T10:26:01;1.30;;;1.10;;
3052;SDS011;1536;51.098;6.414;2023-07-29T10:28:30;1.20;;;1.00;;
3052;SDS011;1536;51.098;6.414;2023-07-29T10:30:57;1.80;;;1.50;;
3052;SDS011;1536;51.098;6.414;2023-07-29T10:33:26;2.60;;;1.40;;
3052;SDS011;1536;51.098;6.414;2023-07-29T10:35:53;3.03;;;1.80;;
3052;SDS011;1536;51.098;6.414;2023-07-29T10:38:21;3.70;;;1.23;;
3052;SDS011;1536;51.098;6.414;2023-07-29T10:40:50;1.70;;;1.50;;
3052;SDS011;1536;51.098;6.414;2023-07-29T10:43:19;2.80;;;1.73;;
3052;SDS011;1536;51.098;6.414;2023-07-29T10:45:50;3.00;;;1.33;;
3052;SDS011;1536;51.098;6.414;2023-07-29T10:51:22;3.63;;;1.53;;
3052;SDS011;1536;51.098;6.414;2023-07-29T10:53:51;1.63;;;1.53;;
3052;SDS011;1536;51.098;6.414;2023-07-29T10:56:24;1.70;;;1.60;;
3052;SDS011;1536;51.098;6.414;2023-07-29T10:58:54;2.90;;;1.80;;
3052;SDS011;1536;51.098;6.414;2023-07-29T11:01:31;2.50;;;2.30;;
3052;SDS011;1536;51.098;6.414;2023-07-29T11:07:05;3.63;;;1.40;;
3052;SDS011;1536;51.098;6.414;2023-07-29T11:09:51;1.60;;;1.40;;
3052;SDS011;1536;51.098;6.414;2023-07-29T11:12:38;3.83;;;1.53;;
3052;SDS011;1536;51.098;6.414;2023-07-29T11:17:56;2.47;;;2.00;;
3052;SDS011;1536;51.098;6.414;2023-07-29T11:20:25;2.03;;;1.43;;
3052;SDS011;1536;51.098;6.414;2023-07-29T11:22:55;2.20;;;1.50;;
3052;SDS011;1536;51.098;6.414;2023-07-29T11:25:22;2.50;;;1.30;;
3052;SDS011;1536;51.098;6.414;2023-07-29T11:27:50;3.13;;;1.70;;
3052;SDS011;1536;51.098;6.414;2023-07-29T11:30:18;2.30;;;1.50;;
3052;SDS011;1536;51.098;6.414;2023-07-29T11:32:45;2.27;;;1.87;;
3052;SDS011;1536;51.098;6.414;2023-07-29T11:35:13;1.93;;;1.40;;
3052;SDS011;1536;51.098;6.414;2023-07-29T11:37:45;2.50;;;1.60;;
3052;SDS011;1536;51.098;6.414;2023-07-29T11:40:16;2.93;;;1.13;;
3052;SDS011;1536;51.098;6.414;2023-07-29T11:42:45;2.23;;;1.33;;
3052;SDS011;1536;51.098;6.414;2023-07-29T11:45:13;2.23;;;1.10;;
3052;SDS011;1536;51.098;6.414;2023-07-29T11:47:41;3.00;;;1.70;;
3052;SDS011;1536;51.098;6.414;2023-07-29T11:50:09;2.90;;;1.73;;
3052;SDS011;1536;51.098;6.414;2023-07-29T11:52:39;2.00;;;1.57;;
3052;SDS011;1536;51.098;6.414;2023-07-29T11:55:08;3.00;;;1.80;;
3052;SDS011;1536;51.098;6.414;2023-07-29T11:57:36;2.00;;;1.50;;
3052;SDS011;1536;51.098;6.414;2023-07-29T12:00:05;1.90;;;1.70;;
3052;SDS011;1536;51.098;6.414;2023-07-29T12:02:35;1.87;;;1.37;;
3052;SDS011;1536;51.098;6.414;2023-07-29T12:05:04;2.07;;;1.87;;
3052;SDS011;1536;51.098;6.414;2023-07-29T12:07:32;4.53;;;2.23;;
3052;SDS011;1536;51.098;6.414;2023-07-29T12:10:02;2.13;;;1.60;;
3052;SDS011;1536;51.098;6.414;2023-07-29T12:12:30;2.27;;;1.97;;
3052;SDS011;1536;51.098;6.414;2023-07-29T12:14:57;2.00;;;1.80;;
3052;SDS011;1536;51.098;6.414;2023-07-29T12:17:24;2.43;;;2.23;;
3052;SDS011;1536;51.098;6.414;2023-07-29T12:19:53;1.93;;;1.70;;
3052;SDS011;1536;51.098;6.414;2023-07-29T12:22:20;4.40;;;1.60;;
3052;SDS011;1536;51.098;6.414;2023-07-29T12:24:49;2.10;;;1.50;;
3052;SDS011;1536;51.098;6.414;2023-07-29T12:27:17;1.90;;;1.60;;
3052;SDS011;1536;51.098;6.414;2023-07-29T12:29:45;2.90;;;2.00;;
3052;SDS011;1536;51.098;6.414;2023-07-29T12:32:13;2.97;;;2.10;;
3052;SDS011;1536;51.098;6.414;2023-07-29T12:34:40;2.30;;;2.10;;
3052;SDS011;1536;51.098;6.414;2023-07-29T12:37:07;3.10;;;2.60;;
3052;SDS011;1536;51.098;6.414;2023-07-29T12:39:39;3.47;;;2.27;;
3052;SDS011;1536;51.098;6.414;2023-07-29T12:42:08;2.90;;;2.30;;
3052;SDS011;1536;51.098;6.414;2023-07-29T12:44:35;3.03;;;2.50;;
3052;SDS011;1536;51.098;6.414;2023-07-29T12:47:05;3.70;;;3.20;;
3052;SDS011;1536;51.098;6.414;2023-07-29T12:49:33;4.00;;;3.57;;
3052;SDS011;1536;51.098;6.414;2023-07-29T12:52:00;6.30;;;3.20;;
3052;SDS011;1536;51.098;6.414;2023-07-29T12:54:27;7.43;;;2.93;;
3052;SDS011;1536;51.098;6.414;2023-07-29T12:56:54;3.50;;;3.20;;
3052;SDS011;1536;51.098;6.414;2023-07-29T12:59:21;5.80;;;3.13;;
3052;SDS011;1536;51.098;6.414;2023-07-29T13:01:47;2.10;;;1.90;;
3052;SDS011;1536;51.098;6.414;2023-07-29T13:04:15;2.70;;;2.43;;
3052;SDS011;1536;51.098;6.414;2023-07-29T13:06:42;4.53;;;4.10;;
3052;SDS011;1536;51.098;6.414;2023-07-29T13:09:09;5.70;;;4.10;;
3052;SDS011;1536;51.098;6.414;2023-07-29T13:11:36;3.13;;;2.83;;
3052;SDS011;1536;51.098;6.414;2023-07-29T13:14:02;2.40;;;2.20;;
3052;SDS011;1536;51.098;6.414;2023-07-29T13:16:29;4.00;;;2.40;;
3052;SDS011;1536;51.098;6.414;2023-07-29T13:18:56;4.30;;;2.20;;
3052;SDS011;1536;51.098;6.414;2023-07-29T13:21:24;4.43;;;3.20;;
3052;SDS011;1536;51.098;6.414;2023-07-29T13:23:52;3.00;;;1.80;;
3052;SDS011;1536;51.098;6.414;2023-07-29T13:26:19;3.03;;;1.77;;
3052;SDS011;1536;51.098;6.414;2023-07-29T13:28:46;1.83;;;1.70;;
3052;SDS011;1536;51.098;6.414;2023-07-29T13:31:13;2.00;;;1.70;;
3052;SDS011;1536;51.098;6.414;2023-07-29T13:33:39;2.70;;;2.17;;
3052;SDS011;1536;51.098;6.414;2023-07-29T13:36:06;10.87;;;2.30;;
3052;SDS011;1536;51.098;6.414;2023-07-29T13:38:35;6.43;;;3.00;;
3052;SDS011;1536;51.098;6.414;2023-07-29T13:41:02;3.23;;;2.13;;
3052;SDS011;1536;51.098;6.414;2023-07-29T13:43:29;4.70;;;2.20;;
3052;SDS011;1536;51.098;6.414;2023-07-29T13:45:56;8.43;;;2.70;;
3052;SDS011;1536;51.098;6.414;2023-07-29T13:48:23;7.23;;;2.13;;
3052;SDS011;1536;51.098;6.414;2023-07-29T13:50:50;4.93;;;2.37;;
3052;SDS011;1536;51.098;6.414;2023-07-29T13:53:17;3.50;;;2.10;;
3052;SDS011;1536;51.098;6.414;2023-07-29T13:55:45;3.87;;;2.00;;
3052;SDS011;1536;51.098;6.414;2023-07-29T13:58:12;2.80;;;2.17;;
3052;SDS011;1536;51.098;6.414;2023-07-29T14:00:38;2.27;;;1.87;;
3052;SDS011;1536;51.098;6.414;2023-07-29T14:03:05;3.13;;;2.00;;
3052;SDS011;1536;51.098;6.414;2023-07-29T14:05:32;2.10;;;1.90;;
3052;SDS011;1536;51.098;6.414;2023-07-29T14:07:59;2.80;;;2.00;;
3052;SDS011;1536;51.098;6.414;2023-07-29T14:10:25;2.33;;;1.80;;
3052;SDS011;1536;51.098;6.414;2023-07-29T14:12:54;2.70;;;2.07;;
3052;SDS011;1536;51.098;6.414;2023-07-29T14:15:21;2.13;;;1.70;;
3052;SDS011;1536;51.098;6.414;2023-07-29T14:17:48;1.93;;;1.57;;
3052;SDS011;1536;51.098;6.414;2023-07-29T14:20:16;1.90;;;1.80;;
3052;SDS011;1536;51.098;6.414;2023-07-29T14:22:44;2.20;;;2.00;;
3052;SDS011;1536;51.098;6.414;2023-07-29T14:25:11;2.20;;;1.70;;
3052;SDS011;1536;51.098;6.414;2023-07-29T14:27:39;2.73;;;1.63;;
3052;SDS011;1536;51.098;6.414;2023-07-29T14:30:08;2.00;;;1.80;;
3052;SDS011;1536;51.098;6.414;2023-07-29T14:32:36;2.47;;;1.90;;
3052;SDS011;1536;51.098;6.414;2023-07-29T14:35:04;2.80;;;1.57;;
3052;SDS011;1536;51.098;6.414;2023-07-29T14:37:33;2.07;;;1.80;;
3052;SDS011;1536;51.098;6.414;2023-07-29T14:40:00;2.27;;;1.77;;
3052;SDS011;1536;51.098;6.414;2023-07-29T14:42:28;1.67;;;1.57;;
3052;SDS011;1536;51.098;6.414;2023-07-29T14:44:55;3.20;;;1.87;;
3052;SDS011;1536;51.098;6.414;2023-07-29T14:47:25;3.00;;;1.97;;
3052;SDS011;1536;51.098;6.414;2023-07-29T14:49:51;2.77;;;2.03;;
3052;SDS011;1536;51.098;6.414;2023-07-29T14:52:18;4.23;;;1.57;;
3052;SDS011;1536;51.098;6.414;2023-07-29T14:54:45;2.63;;;1.80;;
3052;SDS011;1536;51.098;6.414;2023-07-29T14:57:12;2.83;;;2.03;;
3052;SDS011;1536;51.098;6.414;2023-07-29T14:59:38;2.97;;;1.80;;
3052;SDS011;1536;51.098;6.414;2023-07-29T15:02:05;2.00;;;1.70;;
3052;SDS011;1536;51.098;6.414;2023-07-29T15:04:33;1.93;;;1.43;;
3052;SDS011;1536;51.098;6.414;2023-07-29T15:07:02;2.20;;;1.80;;
3052;SDS011;1536;51.098;6.414;2023-07-29T15:09:29;2.10;;;1.87;;
3052;SDS011;1536;51.098;6.414;2023-07-29T15:11:55;3.40;;;2.10;;
3052;SDS011;1536;51.098;6.414;2023-07-29T15:14:22;1.77;;;1.67;;
3052;SDS011;1536;51.098;6.414;2023-07-29T15:16:49;2.73;;;1.97;;
3052;SDS011;1536;51.098;6.414;2023-07-29T15:19:16;1.77;;;1.57;;
3052;SDS011;1536;51.098;6.414;2023-07-29T15:21:44;4.30;;;2.10;;
3052;SDS011;1536;51.098;6.414;2023-07-29T15:24:11;1.60;;;1.50;;
3052;SDS011;1536;51.098;6.414;2023-07-29T15:26:38;3.40;;;2.17;;